Terminal Aerodrome Forecast
Issued by NWS Pendleton, OR

Home | Current Version | Previous Version | Text Only | Print | Product List | Glossary On
Versions: 1 2 3 4 5 6 7 8 9 10 11 12 13 14 15 16 17 18 19 20 21 22 23
000
FTUS46 KPDT 201903 AAB
TAFPDT
TAF AMD
KPDT 201903Z 2019/2118 25010KT P6SM SCT040 BKN080
     FM210300 16006KT P6SM SCT100 BKN250
     FM211400 15011KT P6SM BKN060=

USA.gov is the U.S. government's official web portal to all federal, state and local government web resources and services.